createdAt,value
2022-10-25T00:01:20.829Z,9.69
2022-10-25T00:03:49.418Z,9.56
2022-10-25T00:06:19.046Z,9.52
2022-10-25T00:08:49.317Z,9.38
2022-10-25T00:11:21.067Z,9.21
2022-10-25T00:13:51.076Z,9.12
2022-10-25T00:16:25.426Z,8.96
2022-10-25T00:18:54.336Z,8.82
2022-10-25T00:21:23.845Z,8.68
2022-10-25T00:23:54.756Z,8.56
2022-10-25T00:26:23.420Z,8.49
2022-10-25T00:28:55.864Z,8.43
2022-10-25T00:31:25.509Z,8.33
2022-10-25T00:33:54.250Z,8.23
2022-10-25T00:36:24.416Z,8.15
2022-10-25T00:38:56.900Z,8.42
2022-10-25T00:41:28.101Z,8.47
2022-10-25T00:44:19.028Z,8.76
2022-10-25T00:46:47.999Z,8.84
2022-10-25T00:49:22.475Z,8.64
2022-10-25T00:51:55.991Z,8.33
2022-10-25T00:54:31.551Z,8.11
2022-10-25T00:57:04.805Z,7.94
2022-10-25T00:59:33.768Z,7.81
2022-10-25T01:02:02.780Z,7.77
2022-10-25T01:04:34.614Z,7.80
2022-10-25T01:07:03.852Z,7.74
2022-10-25T01:09:37.754Z,7.73
2022-10-25T01:12:06.698Z,7.62
2022-10-25T01:14:45.289Z,7.57
2022-10-25T01:17:25.810Z,7.54
2022-10-25T01:20:39.451Z,7.56
2022-10-25T01:23:28.538Z,7.55
2022-10-25T01:26:54.421Z,7.57
2022-10-25T01:29:55.056Z,7.46
2022-10-25T01:32:31.063Z,7.43
2022-10-25T01:35:10.346Z,7.31
2022-10-25T01:37:53.120Z,7.20
2022-10-25T01:40:31.616Z,7.14
2022-10-25T01:43:09.068Z,7.10
2022-10-25T01:45:42.657Z,7.06
2022-10-25T01:48:19.662Z,7.05
2022-10-25T01:50:51.223Z,7.04
2022-10-25T01:53:19.922Z,7.13
2022-10-25T01:55:55.335Z,7.15
2022-10-25T01:58:36.293Z,7.18
2022-10-25T02:01:16.348Z,7.25
2022-10-25T02:03:57.471Z,7.13
2022-10-25T02:06:40.111Z,7.13
2022-10-25T02:09:20.534Z,7.06
2022-10-25T02:11:51.610Z,7.05
2022-10-25T02:14:31.788Z,7.02
2022-10-25T02:17:08.560Z,6.93
2022-10-25T02:19:43.578Z,6.94
2022-10-25T02:22:14.553Z,6.92
2022-10-25T02:24:47.014Z,6.90
2022-10-25T02:27:17.188Z,6.92
2022-10-25T02:29:47.230Z,6.92
2022-10-25T02:32:16.230Z,6.84
2022-10-25T02:34:49.683Z,6.77
2022-10-25T02:37:18.644Z,6.73
2022-10-25T02:39:47.569Z,6.73
2022-10-25T02:42:16.188Z,6.67
2022-10-25T02:44:44.898Z,6.60
2022-10-25T02:47:13.479Z,6.56
2022-10-25T02:49:42.090Z,6.72
2022-10-25T02:52:11.667Z,6.93
2022-10-25T02:54:39.923Z,6.85
2022-10-25T02:57:08.519Z,6.63
2022-10-25T02:59:37.174Z,6.47
2022-10-25T03:02:05.817Z,6.51
2022-10-25T03:04:34.417Z,6.43
2022-10-25T03:07:03.041Z,6.32
2022-10-25T03:09:33.045Z,6.23
2022-10-25T03:12:01.664Z,6.15
2022-10-25T03:14:30.285Z,6.14
2022-10-25T03:16:58.903Z,6.11
2022-10-25T03:19:27.520Z,6.11
2022-10-25T03:21:56.140Z,6.14
2022-10-25T03:24:24.857Z,6.07
2022-10-25T03:26:54.838Z,6.08
2022-10-25T03:29:23.504Z,6.00
2022-10-25T03:31:52.246Z,6.12
2022-10-25T03:34:20.556Z,6.23
2022-10-25T03:36:49.194Z,6.42
2022-10-25T03:39:17.786Z,6.61
2022-10-25T03:41:46.396Z,6.91
2022-10-25T03:44:16.550Z,6.93
2022-10-25T03:46:45.151Z,6.93
2022-10-25T03:49:13.792Z,6.90
2022-10-25T03:51:42.449Z,6.84
2022-10-25T03:54:10.744Z,6.80
2022-10-25T03:56:39.038Z,6.77
2022-10-25T03:59:07.788Z,6.71
2022-10-25T04:01:37.860Z,6.77
2022-10-25T04:04:06.690Z,6.68
2022-10-25T04:06:35.332Z,6.72
2022-10-25T04:09:03.985Z,6.69
2022-10-25T04:11:32.631Z,6.64
2022-10-25T04:14:01.286Z,6.59
2022-10-25T04:16:30.089Z,6.70
2022-10-25T04:19:00.061Z,6.78
2022-10-25T04:21:28.803Z,6.81
2022-10-25T04:23:59.368Z,6.82
2022-10-25T04:26:30.790Z,6.84
2022-10-25T04:28:59.447Z,6.82
2022-10-25T04:31:27.944Z,6.79
2022-10-25T04:33:58.882Z,6.73
2022-10-25T04:36:30.747Z,6.73
2022-10-25T04:38:59.799Z,6.66
2022-10-25T04:41:28.533Z,6.64
2022-10-25T04:43:57.151Z,6.56
2022-10-25T04:46:25.861Z,6.55
2022-10-25T04:48:54.494Z,6.57
2022-10-25T04:51:24.529Z,6.61
2022-10-25T04:53:54.924Z,6.66
2022-10-25T04:56:23.923Z,6.62
2022-10-25T04:58:52.204Z,6.63
2022-10-25T05:01:20.909Z,6.50
2022-10-25T05:03:50.020Z,6.51
2022-10-25T05:06:26.095Z,6.44
2022-10-25T05:08:56.367Z,6.39
2022-10-25T05:11:26.796Z,6.31
2022-10-25T05:13:55.573Z,6.19
2022-10-25T05:16:26.083Z,6.11
2022-10-25T05:18:56.234Z,6.06
2022-10-25T05:21:28.852Z,6.05
2022-10-25T05:24:01.476Z,6.13
2022-10-25T05:26:33.191Z,6.15
2022-10-25T05:29:03.619Z,6.17
2022-10-25T05:31:33.429Z,6.11
2022-10-25T05:34:02.602Z,6.11
2022-10-25T05:36:33.421Z,6.04
2022-10-25T05:39:02.362Z,6.02
2022-10-25T05:41:34.553Z,5.82
2022-10-25T05:44:06.282Z,5.84
2022-10-25T05:46:35.089Z,5.87
2022-10-25T05:49:04.147Z,5.89
2022-10-25T05:51:36.593Z,5.93
2022-10-25T05:54:07.538Z,5.88
2022-10-25T05:56:37.614Z,5.94
2022-10-25T05:59:08.961Z,5.93
2022-10-25T06:01:39.871Z,6.04
2022-10-25T06:04:09.271Z,5.97
2022-10-25T06:06:40.840Z,5.97
2022-10-25T06:09:10.605Z,5.93
2022-10-25T06:11:39.766Z,5.90
2022-10-25T06:14:10.851Z,5.92
2022-10-25T06:16:40.066Z,5.88
2022-10-25T06:19:09.135Z,5.93
2022-10-25T06:21:39.194Z,5.89
2022-10-25T06:24:07.957Z,6.01
2022-10-25T06:26:36.568Z,5.96
2022-10-25T06:29:06.633Z,6.05
2022-10-25T06:31:35.423Z,6.02
2022-10-25T06:34:04.149Z,6.10
2022-10-25T06:36:33.550Z,6.17
2022-10-25T06:39:05.656Z,6.20
2022-10-25T06:41:37.675Z,6.34
2022-10-25T06:44:07.685Z,6.54
2022-10-25T06:49:27.948Z,7.53
2022-10-25T06:51:56.747Z,7.81
2022-10-25T06:54:26.913Z,7.98
2022-10-25T06:56:55.314Z,8.24
2022-10-25T06:59:23.920Z,8.37
2022-10-25T07:01:52.686Z,8.22
2022-10-25T07:04:21.450Z,8.18
2022-10-25T07:06:53.009Z,8.25
2022-10-25T07:09:26.541Z,8.19
2022-10-25T07:11:55.164Z,8.29
2022-10-25T07:14:23.763Z,8.37
2022-10-25T07:16:52.357Z,8.63
2022-10-25T07:19:20.885Z,8.76
2022-10-25T07:21:49.603Z,8.71
2022-10-25T07:24:18.303Z,8.79
2022-10-25T07:26:48.317Z,8.85
2022-10-25T07:29:16.926Z,9.04
2022-10-25T07:31:45.650Z,9.48
2022-10-25T07:34:16.827Z,9.83
2022-10-25T07:36:45.165Z,10.56
2022-10-25T07:39:13.766Z,11.64
2022-10-25T07:41:42.379Z,12.38
2022-10-25T07:44:16.742Z,13.07
2022-10-25T07:46:47.043Z,13.66
2022-10-25T07:49:15.664Z,13.88
2022-10-25T07:51:44.012Z,13.85
2022-10-25T07:54:12.301Z,14.17
2022-10-25T07:56:40.916Z,14.46
2022-10-25T07:59:10.877Z,14.60
2022-10-25T08:01:39.623Z,14.09
2022-10-25T08:04:08.321Z,14.20
2022-10-25T08:06:36.637Z,13.35
2022-10-25T08:09:14.361Z,13.28
2022-10-25T08:11:49.076Z,13.24
2022-10-25T08:14:19.139Z,13.59
2022-10-25T08:16:47.496Z,14.52
2022-10-25T08:19:16.072Z,14.72
2022-10-25T08:21:44.636Z,15.60
2022-10-25T08:24:13.278Z,15.36
2022-10-25T08:26:41.999Z,16.02
2022-10-25T08:29:10.510Z,16.77
2022-10-25T08:31:40.332Z,17.25
2022-10-25T08:34:08.838Z,16.33
2022-10-25T08:36:37.479Z,15.30
2022-10-25T08:39:06.147Z,14.82
2022-10-25T08:41:48.105Z,15.20
2022-10-25T08:44:35.637Z,15.81
2022-10-25T08:47:14.433Z,15.72
2022-10-25T08:49:55.259Z,16.10
2022-10-25T08:52:31.188Z,15.70
2022-10-25T08:55:05.553Z,16.42
2022-10-25T08:57:39.174Z,17.15
2022-10-25T09:00:17.573Z,16.99
2022-10-25T09:02:53.524Z,16.67
2022-10-25T09:05:39.230Z,17.08
2022-10-25T09:08:38.857Z,18.10
2022-10-25T09:11:28.273Z,18.54
2022-10-25T09:14:04.987Z,17.97
2022-10-25T09:16:40.086Z,18.13
2022-10-25T09:19:19.114Z,18.13
2022-10-25T09:21:53.731Z,18.05
2022-10-25T09:24:27.220Z,18.02
2022-10-25T09:27:07.105Z,18.73
2022-10-25T09:29:39.351Z,18.75
2022-10-25T09:32:17.180Z,18.10
2022-10-25T09:34:47.170Z,17.99
2022-10-25T09:37:24.812Z,18.05
2022-10-25T09:39:59.499Z,18.22
2022-10-25T09:42:34.254Z,18.62
2022-10-25T09:45:16.503Z,17.25
2022-10-25T09:47:51.722Z,16.89
2022-10-25T09:50:29.007Z,16.98
2022-10-25T09:53:11.094Z,17.16
2022-10-25T09:55:50.445Z,17.22
2022-10-25T09:58:23.122Z,17.31
2022-10-25T10:00:53.507Z,16.37
2022-10-25T10:03:23.849Z,16.64
2022-10-25T10:05:56.702Z,17.06
2022-10-25T10:08:25.630Z,17.58
2022-10-25T10:10:56.124Z,17.37
2022-10-25T10:13:34.989Z,17.30
2022-10-25T10:16:06.414Z,17.62
2022-10-25T10:18:35.856Z,17.22
2022-10-25T10:21:15.156Z,17.21
2022-10-25T10:23:53.250Z,17.92
2022-10-25T10:26:29.368Z,17.75
2022-10-25T10:29:08.907Z,17.94
2022-10-25T10:31:39.928Z,17.14
2022-10-25T10:34:24.965Z,16.67
2022-10-25T10:37:08.272Z,15.98
2022-10-25T10:39:36.925Z,16.18
2022-10-25T10:42:17.454Z,16.84
2022-10-25T10:45:13.437Z,16.55
2022-10-25T10:47:46.285Z,16.97
2022-10-25T10:50:25.740Z,18.25
2022-10-25T10:53:00.966Z,17.55
2022-10-25T10:55:32.309Z,17.93
2022-10-25T10:58:05.427Z,17.87
2022-10-25T11:00:35.931Z,18.77
2022-10-25T11:03:04.628Z,19.17
2022-10-25T11:05:35.415Z,19.33
2022-10-25T11:08:20.459Z,19.73
2022-10-25T11:10:49.316Z,19.37
2022-10-25T11:13:20.013Z,20.55
2022-10-25T11:16:13.368Z,20.60
2022-10-25T11:18:52.025Z,20.01
2022-10-25T11:21:44.891Z,20.00
2022-10-25T11:24:26.529Z,20.79
2022-10-25T11:27:02.522Z,19.99
2022-10-25T11:29:51.892Z,19.82
2022-10-25T11:32:56.255Z,19.87
2022-10-25T11:35:53.578Z,18.97
2022-10-25T11:38:39.243Z,18.28
2022-10-25T11:41:27.660Z,18.11
2022-10-25T11:44:16.000Z,18.14
2022-10-25T11:46:59.370Z,19.45
2022-10-25T11:49:56.824Z,19.58
2022-10-25T11:53:04.331Z,20.06
2022-10-25T11:55:41.324Z,20.55
2022-10-25T11:58:37.586Z,21.24
2022-10-25T12:01:21.456Z,20.22
2022-10-25T12:04:29.823Z,20.67
2022-10-25T12:07:05.606Z,20.89
2022-10-25T12:09:50.821Z,20.54
2022-10-25T12:12:24.928Z,20.00
2022-10-25T12:15:00.713Z,20.98
2022-10-25T12:17:33.533Z,21.58
2022-10-25T12:20:06.476Z,21.53
2022-10-25T12:22:41.175Z,21.18
2022-10-25T12:25:19.332Z,22.16
2022-10-25T12:27:56.625Z,20.97
2022-10-25T12:30:27.443Z,21.22
2022-10-25T12:33:01.149Z,21.19
2022-10-25T12:35:32.351Z,20.77
2022-10-25T12:38:08.032Z,21.00
2022-10-25T12:40:41.944Z,20.91
2022-10-25T12:43:21.200Z,21.01
2022-10-25T12:46:23.081Z,21.71
2022-10-25T12:49:19.825Z,21.85
2022-10-25T12:52:09.398Z,21.08
2022-10-25T12:55:24.425Z,21.88
2022-10-25T12:58:24.890Z,20.82
2022-10-25T13:01:15.414Z,21.85
2022-10-25T13:04:10.283Z,21.14
2022-10-25T13:06:40.908Z,21.22
2022-10-25T13:09:11.791Z,20.96
2022-10-25T13:11:44.264Z,21.31
2022-10-25T13:14:27.502Z,20.33
2022-10-25T13:17:43.719Z,19.05
2022-10-25T13:20:51.536Z,20.30
2022-10-25T13:24:00.449Z,21.78
2022-10-25T13:27:19.855Z,21.42
2022-10-25T13:30:02.431Z,20.70
2022-10-25T13:32:33.292Z,20.95
2022-10-25T13:35:03.818Z,21.79
2022-10-25T13:37:43.785Z,21.89
2022-10-25T13:40:28.745Z,20.91
2022-10-25T13:43:05.395Z,20.03
2022-10-25T13:45:41.730Z,20.77
2022-10-25T13:48:28.437Z,21.10
2022-10-25T13:51:00.910Z,21.46
2022-10-25T13:53:39.290Z,20.42
2022-10-25T13:56:10.109Z,20.06
2022-10-25T13:58:52.733Z,20.86
2022-10-25T14:01:57.269Z,20.13
2022-10-25T14:04:38.038Z,20.90
2022-10-25T14:07:45.565Z,21.13
2022-10-25T14:10:29.064Z,21.72
2022-10-25T14:13:15.483Z,22.08
2022-10-25T14:15:55.753Z,22.26
2022-10-25T14:18:26.527Z,21.74
2022-10-25T14:20:59.700Z,22.01
2022-10-25T14:23:33.371Z,21.42
2022-10-25T14:26:06.155Z,21.00
2022-10-25T14:28:35.773Z,21.43
2022-10-25T14:31:07.488Z,21.57
2022-10-25T14:33:42.979Z,20.46
2022-10-25T14:36:26.339Z,20.72
2022-10-25T14:38:57.734Z,19.76
2022-10-25T14:41:28.887Z,20.08
2022-10-25T14:43:58.088Z,20.36
2022-10-25T14:46:30.170Z,20.35
2022-10-25T14:49:01.418Z,20.83
2022-10-25T14:51:33.660Z,20.26
2022-10-25T14:54:05.648Z,20.49
2022-10-25T14:56:39.353Z,20.35
2022-10-25T14:59:21.110Z,20.63
2022-10-25T15:01:56.059Z,20.52
2022-10-25T15:04:33.198Z,19.95
2022-10-25T15:07:02.725Z,19.45
2022-10-25T15:09:49.007Z,18.18
2022-10-25T15:12:22.174Z,16.99
2022-10-25T15:14:50.561Z,16.49
2022-10-25T15:17:27.682Z,16.17
2022-10-25T15:20:27.708Z,16.02
2022-10-25T15:23:05.423Z,16.08
2022-10-25T15:25:38.837Z,16.58
2022-10-25T15:28:13.255Z,17.10
2022-10-25T15:30:46.146Z,17.06
2022-10-25T15:33:19.097Z,16.97
2022-10-25T15:35:51.886Z,16.75
2022-10-25T15:38:20.676Z,16.22
2022-10-25T15:40:50.582Z,15.76
2022-10-25T15:43:19.178Z,15.32
2022-10-25T15:45:47.913Z,15.11
2022-10-25T15:48:21.191Z,14.83
2022-10-25T15:50:53.028Z,14.26
2022-10-25T15:53:22.113Z,13.63
2022-10-25T15:55:51.880Z,12.99
2022-10-25T15:58:20.218Z,12.68
2022-10-25T16:00:51.935Z,12.53
2022-10-25T16:03:24.845Z,12.39
2022-10-25T16:05:54.142Z,12.20
2022-10-25T16:08:22.449Z,11.97
2022-10-25T16:10:50.937Z,11.71
2022-10-25T16:13:30.751Z,11.65
2022-10-25T16:16:04.363Z,11.68
2022-10-25T16:18:34.478Z,11.65
2022-10-25T16:21:03.104Z,11.55
2022-10-25T16:23:31.939Z,11.47
2022-10-25T16:26:00.582Z,11.49
2022-10-25T16:28:29.196Z,11.48
2022-10-25T16:30:57.861Z,11.24
2022-10-25T16:33:26.471Z,11.13
2022-10-25T16:35:56.422Z,11.08
2022-10-25T16:38:25.181Z,11.12
2022-10-25T16:40:53.793Z,11.13
2022-10-25T16:43:22.355Z,11.17
2022-10-25T16:45:50.970Z,11.27
2022-10-25T16:48:19.574Z,11.30
2022-10-25T16:50:48.333Z,11.23
2022-10-25T16:53:18.019Z,11.12
2022-10-25T16:55:46.623Z,10.97
2022-10-25T16:58:15.225Z,10.77
2022-10-25T17:00:44.040Z,10.70
2022-10-25T17:03:12.476Z,10.59
2022-10-25T17:05:41.184Z,10.55
2022-10-25T17:08:09.752Z,10.55
2022-10-25T17:10:43.678Z,10.57
2022-10-25T17:13:16.099Z,10.63
2022-10-25T17:15:44.898Z,10.71
2022-10-25T17:18:16.719Z,10.69
2022-10-25T17:20:45.322Z,10.58
2022-10-25T17:23:13.936Z,10.53
2022-10-25T17:25:43.881Z,10.62
2022-10-25T17:28:12.677Z,10.51
2022-10-25T17:30:43.317Z,10.33
2022-10-25T17:33:11.593Z,10.18
2022-10-25T17:35:42.997Z,10.09
2022-10-25T17:38:11.663Z,10.12
2022-10-25T17:40:40.571Z,10.23
2022-10-25T17:43:11.766Z,10.14
2022-10-25T17:45:40.409Z,10.11
2022-10-25T17:48:08.853Z,10.11
2022-10-25T17:50:40.997Z,10.09
2022-10-25T17:53:10.625Z,10.09
2022-10-25T17:55:41.132Z,10.05
2022-10-25T17:58:11.025Z,9.99
2022-10-25T18:00:39.655Z,9.86
2022-10-25T18:03:07.924Z,9.81
2022-10-25T18:05:38.968Z,9.75
2022-10-25T18:08:08.189Z,9.79
2022-10-25T18:10:36.999Z,9.82
2022-10-25T18:13:05.591Z,9.91
2022-10-25T18:15:35.810Z,10.01
2022-10-25T18:18:04.582Z,9.90
2022-10-25T18:20:33.376Z,9.90
2022-10-25T18:23:01.960Z,9.93
2022-10-25T18:25:30.616Z,9.96
2022-10-25T18:27:59.320Z,9.99
2022-10-25T18:30:27.916Z,9.92
2022-10-25T18:32:57.585Z,9.85
2022-10-25T18:35:26.307Z,9.72
2022-10-25T18:37:54.597Z,9.70
2022-10-25T18:40:23.236Z,9.73
2022-10-25T18:42:51.799Z,9.63
2022-10-25T18:45:20.159Z,9.62
2022-10-25T18:47:53.216Z,9.66
2022-10-25T18:50:22.957Z,9.78
2022-10-25T18:52:51.579Z,9.74
2022-10-25T18:55:21.613Z,9.71
2022-10-25T18:57:50.557Z,9.74
2022-10-25T19:00:19.519Z,9.70
2022-10-25T19:02:52.583Z,9.61
2022-10-25T19:05:22.995Z,9.57
2022-10-25T19:07:51.560Z,9.60
2022-10-25T19:10:20.147Z,9.71
2022-10-25T19:12:48.734Z,9.73
2022-10-25T19:15:17.617Z,9.75
2022-10-25T19:17:46.473Z,9.71
2022-10-25T19:20:15.297Z,9.59
2022-10-25T19:22:44.906Z,9.54
2022-10-25T19:25:13.831Z,9.46
2022-10-25T19:27:42.852Z,9.39
2022-10-25T19:30:12.618Z,9.13
2022-10-25T19:32:41.570Z,8.92
2022-10-25T19:35:10.751Z,8.75
2022-10-25T19:37:40.314Z,8.69
2022-10-25T19:40:12.155Z,8.57
2022-10-25T19:42:40.934Z,8.67
2022-10-25T19:45:09.676Z,8.79
2022-10-25T19:47:40.336Z,8.90
2022-10-25T19:50:09.681Z,8.95
2022-10-25T19:52:39.072Z,8.95
2022-10-25T19:55:09.765Z,8.91
2022-10-25T19:57:38.398Z,8.78
2022-10-25T20:00:10.009Z,8.60
2022-10-25T20:02:41.446Z,8.51
2022-10-25T20:07:40.180Z,8.38
2022-10-25T20:10:10.552Z,8.30
2022-10-25T20:12:38.902Z,8.32
2022-10-25T20:15:08.669Z,8.56
2022-10-25T20:17:37.141Z,8.71
2022-10-25T20:20:06.532Z,8.85
2022-10-25T20:22:37.954Z,8.92
2022-10-25T20:25:07.776Z,8.97
2022-10-25T20:27:37.493Z,9.01
2022-10-25T20:30:07.001Z,9.01
2022-10-25T20:32:35.310Z,9.06
2022-10-25T20:37:38.374Z,9.04
2022-10-25T20:40:08.035Z,8.92
2022-10-25T20:42:37.997Z,8.78
2022-10-25T20:45:07.256Z,8.59
2022-10-25T20:47:35.996Z,8.55
2022-10-25T20:50:04.775Z,8.46
2022-10-25T20:52:34.727Z,8.36
2022-10-25T20:55:03.455Z,8.27
2022-10-25T20:57:33.641Z,8.26
2022-10-25T21:00:03.261Z,8.25
2022-10-25T21:02:31.888Z,8.25
2022-10-25T21:05:00.534Z,8.25
2022-10-25T21:07:31.680Z,8.47
2022-10-25T21:10:00.574Z,8.51
2022-10-25T21:12:29.161Z,8.62
2022-10-25T21:14:57.814Z,8.65
2022-10-25T21:17:27.459Z,8.68
2022-10-25T21:19:55.733Z,8.71
2022-10-25T21:22:23.982Z,8.74
2022-10-25T21:24:52.575Z,8.84
2022-10-25T21:27:21.347Z,8.89
2022-10-25T21:29:49.613Z,8.83
2022-10-25T21:32:18.229Z,8.86
2022-10-25T21:34:47.848Z,8.88
2022-10-25T21:37:16.095Z,8.95
2022-10-25T21:39:45.861Z,8.92
2022-10-25T21:42:14.169Z,8.84
2022-10-25T21:44:42.831Z,8.72
2022-10-25T21:47:11.484Z,8.70
2022-10-25T21:49:40.068Z,8.70
2022-10-25T21:52:09.670Z,8.69
2022-10-25T21:54:38.237Z,8.61
2022-10-25T21:57:06.820Z,8.60
2022-10-25T21:59:35.513Z,8.63
2022-10-25T22:02:04.577Z,8.70
2022-10-25T22:04:34.119Z,8.79
2022-10-25T22:07:02.725Z,8.82
2022-10-25T22:09:32.686Z,8.81
2022-10-25T22:12:01.009Z,8.88
2022-10-25T22:14:29.821Z,8.92
2022-10-25T22:16:58.441Z,8.95
2022-10-25T22:19:27.185Z,8.91
2022-10-25T22:21:55.824Z,8.86
2022-10-25T22:24:24.403Z,8.83
2022-10-25T22:26:54.855Z,8.83
2022-10-25T22:29:23.488Z,8.79
2022-10-25T22:31:52.089Z,8.83
2022-10-25T22:34:20.741Z,8.76
2022-10-25T22:36:49.312Z,8.70
2022-10-25T22:39:17.870Z,8.69
2022-10-25T22:41:46.309Z,8.67
2022-10-25T22:44:15.934Z,8.70
2022-10-25T22:46:44.572Z,8.70
2022-10-25T22:49:13.250Z,8.71
2022-10-25T22:51:41.839Z,8.77
2022-10-25T22:54:10.453Z,8.71
2022-10-25T22:56:38.725Z,8.69
2022-10-25T22:59:07.414Z,8.65
2022-10-25T23:01:38.805Z,8.64
2022-10-25T23:04:08.778Z,8.67
2022-10-25T23:06:39.516Z,8.68
2022-10-25T23:09:10.336Z,8.60
2022-10-25T23:11:41.539Z,8.68
2022-10-25T23:14:14.777Z,8.76
2022-10-25T23:16:47.254Z,8.78
2022-10-25T23:19:15.888Z,8.71
2022-10-25T23:21:44.495Z,8.67
2022-10-25T23:24:13.079Z,8.65
2022-10-25T23:26:41.738Z,8.71
2022-10-25T23:29:13.494Z,8.86
2022-10-25T23:31:42.077Z,8.89
2022-10-25T23:34:12.642Z,8.88
2022-10-25T23:36:41.302Z,8.88
2022-10-25T23:39:10.206Z,8.94
2022-10-25T23:41:39.204Z,9.07
2022-10-25T23:44:07.553Z,9.16
2022-10-25T23:46:36.034Z,9.15
2022-10-25T23:49:04.414Z,9.11
2022-10-25T23:51:34.155Z,9.13
2022-10-25T23:54:02.871Z,9.10
2022-10-25T23:56:31.500Z,9.03
2022-10-25T23:59:00.388Z,8.95
